Time;durP1;ratioP1;P1;durP2;ratioP2;P2;SDS_P1;SDS_P2;PMS_P1;PMS_P2;Temp;Humidity;BMP_temperature;BMP_pressure;BME280_temperature;BME280_humidity;BME280_pressure;Samples;Min_cycle;Max_cycle;Signal;HPM_P1;HPM_P2
2022/07/18 00:01:46;;;;;;;4.95;1.60;;;;;;;22.89;50.26;100702.63;5041621;28;20219;-75
2022/07/18 00:04:12;;;;;;;2.20;1.50;;;;;;;22.72;50.10;100692.44;5047548;28;20574;-74
2022/07/18 00:06:39;;;;;;;2.50;1.45;;;;;;;22.61;50.02;100667.16;5050586;28;20199;-75
2022/07/18 00:09:06;;;;;;;4.20;1.70;;;;;;;22.64;50.57;100693.53;5050518;28;20206;-74
2022/07/18 00:11:33;;;;;;;4.03;2.08;;;;;;;22.72;50.15;100691.59;5050561;28;20203;-74
2022/07/18 00:14:00;;;;;;;3.08;1.60;;;;;;;22.49;50.52;100663.03;5050271;28;20874;-74
2022/07/18 00:16:27;;;;;;;2.03;1.77;;;;;;;22.69;50.41;100715.44;5052548;28;20655;-76
2022/07/18 00:18:57;;;;;;;1.80;1.70;;;;;;;22.67;50.53;100714.63;5054184;28;20214;-75
2022/07/18 00:21:24;;;;;;;3.13;1.67;;;;;;;22.53;50.72;100706.13;5054228;28;20233;-76
2022/07/18 00:23:50;;;;;;;1.52;1.48;;;;;;;22.59;50.47;100733.28;5054306;28;20582;-73
2022/07/18 00:26:17;;;;;;;2.10;1.50;;;;;;;22.39;50.74;100714.38;5053534;28;20218;-75
2022/07/18 00:28:44;;;;;;;3.05;1.70;;;;;;;22.24;50.68;100697.09;5053505;28;20196;-74
2022/07/18 00:31:11;;;;;;;2.85;1.73;;;;;;;22.45;50.48;100742.44;5053758;28;20207;-75
2022/07/18 00:33:38;;;;;;;8.23;1.70;;;;;;;22.44;50.64;100738.91;5035267;28;20278;-73
2022/07/18 00:36:07;;;;;;;6.22;1.83;;;;;;;22.34;49.71;100731.22;5054077;28;20668;-75
2022/07/18 00:38:34;;;;;;;5.80;1.70;;;;;;;22.35;50.29;100730.34;5034560;28;20231;-75
2022/07/18 00:41:01;;;;;;;7.57;1.70;;;;;;;22.26;50.66;100730.56;5053746;28;20196;-75
2022/07/18 00:43:28;;;;;;;5.80;1.70;;;;;;;22.23;50.72;100729.69;5053404;28;20567;-74
2022/07/18 00:45:55;;;;;;;2.88;1.92;;;;;;;22.12;50.91;100726.44;4998887;28;20319;-75
2022/07/18 00:48:22;;;;;;;2.15;1.33;;;;;;;21.92;51.26;100719.84;5052640;28;20208;-75
2022/07/18 00:50:49;;;;;;;5.78;1.33;;;;;;;21.87;51.07;100711.97;5053424;28;20199;-75
2022/07/18 00:53:18;;;;;;;2.25;1.67;;;;;;;21.98;51.43;100725.84;5053666;28;20200;-73
2022/07/18 00:55:47;;;;;;;1.80;1.50;;;;;;;22.04;51.47;100746.00;5053485;28;20782;-74
2022/07/18 00:58:14;;;;;;;3.88;1.50;;;;;;;22.04;51.99;100749.53;5052709;28;20196;-75
2022/07/18 01:03:26;;;;;;;1.38;1.00;;;;;;;21.79;52.13;100744.75;5053759;28;20361;-75
2022/07/18 01:05:53;;;;;;;5.75;1.42;;;;;;;21.87;52.17;100756.03;5053723;28;20214;-75
2022/07/18 01:08:21;;;;;;;2.55;1.60;;;;;;;21.89;52.26;100749.78;5053172;28;20672;-75
2022/07/18 01:10:48;;;;;;;4.63;1.63;;;;;;;21.76;52.18;100750.94;5017939;28;20196;-74
2022/07/18 01:13:15;;;;;;;2.63;1.42;;;;;;;21.83;51.97;100759.63;5053145;28;20666;-74
2022/07/18 01:15:42;;;;;;;3.60;1.45;;;;;;;21.66;51.93;100733.53;5018151;28;20199;-75
2022/07/18 01:18:09;;;;;;;1.45;1.30;;;;;;;21.72;52.23;100760.69;5053130;28;20214;-75
2022/07/18 01:20:37;;;;;;;3.10;1.75;;;;;;;21.80;52.23;100757.88;5017883;28;20192;-74
2022/07/18 01:23:04;;;;;;;4.72;1.45;;;;;;;21.75;52.14;100778.25;5053076;28;20234;-75
2022/07/18 01:25:32;;;;;;;1.20;1.20;;;;;;;21.65;52.32;100774.91;5052752;28;20580;-75
2022/07/18 01:27:59;;;;;;;2.92;1.38;;;;;;;21.66;52.28;100774.00;5051055;28;20222;-75
2022/07/18 01:30:26;;;;;;;1.67;1.52;;;;;;;21.61;53.14;100767.09;5052971;28;20199;-74
2022/07/18 01:32:57;;;;;;;3.25;1.33;;;;;;;21.41;52.95;100734.91;5052930;28;20215;-76
2022/07/18 01:35:24;;;;;;;2.47;1.15;;;;;;;21.60;53.29;100778.53;5053104;28;20214;-74
2022/07/18 01:37:54;;;;;;;1.60;1.50;;;;;;;21.54;53.17;100757.53;5052453;28;20587;-75
2022/07/18 01:40:21;;;;;;;1.60;1.50;;;;;;;21.47;53.80;100761.19;5052795;28;20195;-74
2022/07/18 01:42:48;;;;;;;6.00;1.48;;;;;;;21.61;53.96;100780.28;5052422;28;20230;-75
2022/07/18 01:45:15;;;;;;;8.77;1.73;;;;;;;21.56;53.87;100790.91;5032763;28;20204;-74
2022/07/18 01:47:42;;;;;;;3.15;1.50;;;;;;;21.51;54.41;100784.00;5036612;28;20257;-75
2022/07/18 01:50:10;;;;;;;4.72;1.35;;;;;;;21.52;53.97;100781.31;5052164;28;20191;-74
2022/07/18 01:52:37;;;;;;;1.67;1.10;;;;;;;21.47;54.06;100783.19;5052104;28;20211;-75
2022/07/18 01:55:08;;;;;;;1.10;1.00;;;;;;;21.38;54.26;100758.72;5052287;28;20243;-74
2022/07/18 01:57:35;;;;;;;1.25;1.17;;;;;;;21.42;54.82;100784.16;5052190;28;20218;-74
2022/07/18 02:00:03;;;;;;;1.27;1.17;;;;;;;21.44;55.22;100779.72;5052398;28;20222;-76
2022/07/18 02:02:30;;;;;;;4.18;1.27;;;;;;;21.08;55.61;100720.56;5050786;28;20230;-74
2022/07/18 02:05:03;;;;;;;5.65;1.50;;;;;;;21.21;56.31;100756.38;5052352;28;20200;-76
2022/07/18 02:07:32;;;;;;;5.55;1.20;;;;;;;21.46;54.69;100777.94;5047702;28;20225;-74
2022/07/18 02:10:00;;;;;;;4.15;1.25;;;;;;;21.25;55.07;100740.50;5017047;28;20195;-74
2022/07/18 02:12:28;;;;;;;3.20;1.30;;;;;;;21.56;55.21;100795.31;5064976;28;20203;-74
2022/07/18 02:14:55;;;;;;;2.60;0.95;;;;;;;21.43;55.72;100801.72;5051939;28;20690;-74
2022/07/18 02:17:22;;;;;;;3.05;1.23;;;;;;;21.41;55.02;100792.94;5051834;28;20203;-75
2022/07/18 02:19:49;;;;;;;1.40;1.35;;;;;;;21.15;55.29;100780.25;5016425;28;20203;-76
2022/07/18 02:22:16;;;;;;;4.18;1.52;;;;;;;21.43;55.58;100813.16;5052015;28;20242;-75
2022/07/18 02:24:43;;;;;;;8.57;1.70;;;;;;;21.34;55.18;100801.88;5033106;28;20199;-74
2022/07/18 02:27:10;;;;;;;3.80;1.50;;;;;;;21.15;55.13;100798.72;5051207;28;20201;-75
2022/07/18 02:29:39;;;;;;;1.67;1.58;;;;;;;21.33;55.11;100821.25;5013144;28;20204;-76
2022/07/18 02:32:06;;;;;;;1.90;1.13;;;;;;;21.08;55.41;100811.06;5038288;28;20190;-75
2022/07/18 02:34:33;;;;;;;1.30;1.25;;;;;;;21.08;56.09;100834.81;5061073;28;20667;-74
2022/07/18 02:37:00;;;;;;;2.42;1.23;;;;;;;20.80;55.32;100788.66;5059790;28;20207;-74
2022/07/18 02:39:28;;;;;;;1.30;1.20;;;;;;;20.99;55.33;100834.97;5061544;28;20198;-74
2022/07/18 02:41:55;;;;;;;1.38;1.35;;;;;;;20.85;55.77;100834.28;5061613;28;20200;-75
2022/07/18 02:44:22;;;;;;;1.38;1.10;;;;;;;20.83;55.96;100838.72;5057097;28;20195;-74
2022/07/18 02:46:51;;;;;;;6.47;1.67;;;;;;;20.80;56.17;100820.28;5058615;28;20191;-74
2022/07/18 02:49:27;;;;;;;3.33;1.40;;;;;;;20.86;55.96;100849.22;5050349;28;20206;-75
2022/07/18 02:51:55;;;;;;;1.00;1.00;;;;;;;20.84;56.02;100839.56;5018436;28;20203;-75
2022/07/18 02:54:23;;;;;;;2.10;1.27;;;;;;;20.86;56.63;100851.88;5051262;28;20227;-75
2022/07/18 02:56:50;;;;;;;4.40;1.67;;;;;;;20.77;56.72;100859.88;5050884;28;20192;-75
2022/07/18 02:59:17;;;;;;;1.17;1.10;;;;;;;20.73;56.65;100852.91;5051532;28;20204;-75
2022/07/18 03:01:44;;;;;;;1.55;1.25;;;;;;;20.67;57.11;100850.38;5051022;28;20203;-75
2022/07/18 03:04:12;;;;;;;4.18;1.20;;;;;;;20.73;57.71;100856.44;5016391;28;20250;-74
2022/07/18 03:06:39;;;;;;;2.10;1.15;;;;;;;20.72;58.40;100865.25;5050214;28;20203;-75
2022/07/18 03:09:06;;;;;;;1.10;1.10;;;;;;;20.72;58.58;100867.88;5050377;28;20207;-74
2022/07/18 03:11:33;;;;;;;2.47;1.17;;;;;;;20.73;57.65;100866.09;5051122;28;20207;-75
2022/07/18 03:14:00;;;;;;;1.05;1.00;;;;;;;20.73;57.96;100861.69;5050634;28;20563;-75
2022/07/18 03:16:27;;;;;;;3.15;1.08;;;;;;;20.63;58.48;100851.31;5050902;28;20204;-75
2022/07/18 03:18:53;;;;;;;1.08;1.00;;;;;;;20.38;58.30;100794.56;5051156;28;20211;-75
2022/07/18 03:21:22;;;;;;;1.25;1.17;;;;;;;20.68;58.65;100836.31;5051198;28;20214;-74
2022/07/18 03:23:49;;;;;;;1.38;1.27;;;;;;;20.78;58.48;100867.78;5050143;28;20218;-74
2022/07/18 03:26:15;;;;;;;1.00;1.00;;;;;;;20.82;59.27;100865.09;5050413;28;20594;-74
2022/07/18 03:28:42;;;;;;;1.25;1.10;;;;;;;20.66;59.00;100853.88;5050361;28;20196;-74
2022/07/18 03:31:09;;;;;;;1.25;1.15;;;;;;;20.88;58.33;100872.91;5051019;28;20206;-74
2022/07/18 03:33:36;;;;;;;2.47;1.13;;;;;;;21.10;58.02;100858.53;5032099;28;20199;-74
2022/07/18 03:36:03;;;;;;;3.50;1.40;;;;;;;21.05;57.19;100847.16;5050588;28;20203;-74
2022/07/18 03:38:31;;;;;;;4.00;1.20;;;;;;;20.89;57.33;100845.66;5015735;28;20192;-74
2022/07/18 03:40:58;;;;;;;1.20;1.10;;;;;;;21.06;57.77;100873.53;5050798;28;20203;-74
2022/07/18 03:43:25;;;;;;;4.28;1.23;;;;;;;21.03;56.74;100862.16;5050314;28;20219;-74
2022/07/18 03:45:52;;;;;;;1.23;1.17;;;;;;;21.11;56.62;100879.66;5050496;28;20195;-74
2022/07/18 03:48:18;;;;;;;1.73;1.63;;;;;;;21.22;55.77;100888.22;5047683;28;20200;-75
2022/07/18 03:50:45;;;;;;;1.15;1.05;;;;;;;21.20;54.89;100860.16;5051519;28;20200;-74
2022/07/18 03:53:12;;;;;;;4.60;1.67;;;;;;;21.79;53.92;100901.38;5055327;28;20195;-74
2022/07/18 03:55:40;;;;;;;1.25;1.13;;;;;;;22.03;53.29;100903.59;5054021;28;20226;-74
2022/07/18 03:58:07;;;;;;;4.10;1.20;;;;;;;21.85;52.64;100859.03;5054727;28;20206;-75
2022/07/18 04:00:34;;;;;;;1.20;1.10;;;;;;;22.22;51.94;100902.34;5054564;28;20199;-75
2022/07/18 04:03:01;;;;;;;2.30;0.75;;;;;;;22.27;52.11;100896.09;5019259;28;20586;-74
2022/07/18 04:05:28;;;;;;;1.20;1.10;;;;;;;22.39;51.01;100893.22;5054170;28;20192;-75
2022/07/18 04:07:55;;;;;;;1.42;1.20;;;;;;;22.84;50.27;100897.56;5050372;28;20203;-75
2022/07/18 04:10:21;;;;;;;2.38;1.20;;;;;;;22.56;50.10;100901.66;5054732;28;20195;-75
2022/07/18 04:12:51;;;;;;;1.58;1.33;;;;;;;22.69;50.01;100879.38;5054288;28;20200;-75
2022/07/18 04:15:20;;;;;;;4.03;1.10;;;;;;;22.67;49.77;100918.22;5054375;28;20214;-77
2022/07/18 04:17:47;;;;;;;1.98;1.08;;;;;;;22.65;49.62;100904.97;5053348;28;20794;-75
2022/07/18 04:20:15;;;;;;;2.08;1.27;;;;;;;22.86;49.55;100906.34;5054046;28;20214;-74
2022/07/18 04:22:50;;;;;;;1.50;1.33;;;;;;;23.11;49.43;100875.78;5015256;28;20227;-74
2022/07/18 04:25:17;;;;;;;1.00;1.00;;;;;;;22.93;49.03;100891.19;5047357;28;20199;-75
2022/07/18 04:27:45;;;;;;;1.80;1.35;;;;;;;23.07;49.11;100911.16;5053690;28;20191;-73
2022/07/18 04:30:14;;;;;;;3.15;1.23;;;;;;;23.61;48.45;100914.28;5059293;28;20195;-73
2022/07/18 04:32:40;;;;;;;3.22;1.30;;;;;;;23.80;48.16;100914.66;5054302;28;20214;-74
2022/07/18 04:35:08;;;;;;;1.27;1.27;;;;;;;23.76;48.13;100923.59;5053984;28;20207;-74
2022/07/18 04:37:35;;;;;;;0.90;0.90;;;;;;;23.51;48.70;100919.81;5053966;28;20199;-75
2022/07/18 04:40:03;;;;;;;2.75;1.25;;;;;;;23.35;48.38;100905.19;5053389;28;20198;-72
2022/07/18 04:42:31;;;;;;;1.30;1.20;;;;;;;23.28;48.86;100909.78;5053602;28;20224;-75
2022/07/18 04:44:58;;;;;;;1.13;1.10;;;;;;;23.79;48.25;100920.91;5053877;28;20656;-74
2022/07/18 04:47:27;;;;;;;6.32;1.30;;;;;;;23.01;49.83;100921.84;5018437;28;20204;-74
2022/07/18 04:49:54;;;;;;;1.70;1.02;;;;;;;22.63;50.54;100927.94;5051906;28;20204;-73
2022/07/18 04:52:21;;;;;;;1.20;1.20;;;;;;;22.64;51.16;100902.38;5052653;28;20188;-73
2022/07/18 04:54:48;;;;;;;5.35;1.48;;;;;;;23.41;49.67;100928.88;5051963;28;20226;-75
2022/07/18 04:57:15;;;;;;;7.07;1.30;;;;;;;23.36;48.95;100934.28;5052018;28;20196;-76
2022/07/18 04:59:43;;;;;;;2.80;1.48;;;;;;;23.99;46.93;100933.59;5051715;28;20245;-76
2022/07/18 05:02:10;;;;;;;1.60;1.50;;;;;;;23.86;47.71;100941.03;5051189;28;20673;-74
2022/07/18 05:04:39;;;;;;;1.00;1.00;;;;;;;23.89;46.92;100943.59;5052057;28;20215;-75
2022/07/18 05:07:07;;;;;;;1.25;1.20;;;;;;;24.14;47.03;100949.13;5034604;28;20204;-74
2022/07/18 05:09:34;;;;;;;1.90;1.25;;;;;;;23.97;47.34;100941.59;5040476;28;20235;-75
2022/07/18 05:12:01;;;;;;;4.43;1.38;;;;;;;24.25;46.30;100932.94;5051324;28;20206;-74
2022/07/18 05:14:28;;;;;;;0.90;0.90;;;;;;;24.02;47.02;100926.44;5051658;28;20633;-74
2022/07/18 05:16:55;;;;;;;1.45;1.35;;;;;;;24.09;46.34;100949.22;5037836;28;20197;-74
2022/07/18 05:19:22;;;;;;;1.30;1.20;;;;;;;24.47;45.35;100960.63;5052302;28;20195;-73
2022/07/18 05:21:50;;;;;;;2.80;1.00;;;;;;;24.20;46.14;100941.00;5050814;28;20203;-73
2022/07/18 05:24:17;;;;;;;2.42;1.13;;;;;;;24.22;46.14;100943.63;5053677;28;20231;-75
2022/07/18 05:26:44;;;;;;;2.47;1.10;;;;;;;24.22;45.30;100956.88;5051109;28;20699;-76
2022/07/18 05:29:12;;;;;;;0.93;0.90;;;;;;;23.92;46.22;100962.03;5015122;28;20206;-76
2022/07/18 05:31:39;;;;;;;1.15;1.05;;;;;;;24.11;45.91;100965.09;5053380;28;21527;-74
2022/07/18 05:34:06;;;;;;;1.00;1.00;;;;;;;24.05;45.90;100973.19;5048697;28;20203;-76
2022/07/18 05:36:33;;;;;;;1.45;1.38;;;;;;;24.26;45.50;100971.81;5017278;28;20200;-73
2022/07/18 05:39:02;;;;;;;1.58;1.27;;;;;;;24.13;45.45;100960.66;5050998;28;20207;-75
2022/07/18 05:41:28;;;;;;;2.05;1.13;;;;;;;23.77;46.97;100957.13;5045622;28;20214;-76
2022/07/18 05:43:55;;;;;;;0.93;0.93;;;;;;;23.77;46.12;100959.78;5054300;28;20224;-75
2022/07/18 05:46:22;;;;;;;2.70;1.10;;;;;;;23.66;46.81;100959.16;5050861;28;20215;-76
2022/07/18 05:48:49;;;;;;;3.95;1.10;;;;;;;23.82;46.37;100957.03;5049762;28;20561;-75
2022/07/18 05:51:16;;;;;;;3.08;1.00;;;;;;;23.72;46.18;100964.34;5050941;28;20208;-75
2022/07/18 05:53:43;;;;;;;1.30;1.10;;;;;;;23.81;46.03;100964.09;5009619;28;1183874;-74
2022/07/18 05:56:12;;;;;;;2.50;1.25;;;;;;;24.03;45.81;100952.03;5052281;28;20200;-76
2022/07/18 05:58:39;;;;;;;2.08;1.40;;;;;;;24.25;46.19;100967.41;5052468;28;20195;-75
2022/07/18 06:01:06;;;;;;;1.92;1.13;;;;;;;24.10;45.89;100966.88;5048084;28;20199;-74
2022/07/18 06:03:33;;;;;;;3.00;1.60;;;;;;;24.46;45.72;100969.47;5052385;28;20251;-75
2022/07/18 06:06:00;;;;;;;1.40;1.30;;;;;;;24.12;45.71;100973.00;5051688;28;20234;-76
2022/07/18 06:08:27;;;;;;;2.78;1.30;;;;;;;24.13;45.78;100974.78;5033080;28;20295;-76
2022/07/18 06:10:53;;;;;;;2.22;1.00;;;;;;;23.98;45.19;100977.78;5051730;28;20222;-76
2022/07/18 06:13:22;;;;;;;2.00;1.15;;;;;;;23.76;45.89;100965.13;5050982;28;20222;-75
2022/07/18 06:15:48;;;;;;;5.65;1.25;;;;;;;23.93;45.08;100968.22;5043829;28;20204;-76
2022/07/18 06:18:15;;;;;;;1.00;1.00;;;;;;;23.65;44.65;100973.34;5046266;28;20668;-76
2022/07/18 06:20:42;;;;;;;9.35;1.15;;;;;;;23.75;45.37;100973.97;5016884;28;20664;-74
2022/07/18 06:23:09;;;;;;;0.80;0.80;;;;;;;23.84;44.90;100971.09;5048568;28;20207;-74
2022/07/18 06:25:36;;;;;;;2.35;1.10;;;;;;;23.77;45.09;100949.19;5051528;28;20203;-74
2022/07/18 06:28:03;;;;;;;1.05;0.90;;;;;;;23.63;44.41;100969.84;5051815;28;20225;-74
2022/07/18 06:30:31;;;;;;;9.68;1.38;;;;;;;23.99;45.05;100971.56;5051154;28;20202;-74
2022/07/18 06:32:58;;;;;;;1.00;1.00;;;;;;;23.72;44.12;100952.88;5051670;28;20202;-75
2022/07/18 06:35:25;;;;;;;2.05;1.00;;;;;;;23.98;44.30;100972.47;5051485;28;20648;-72
2022/07/18 06:37:51;;;;;;;1.30;0.73;;;;;;;23.58;43.57;100966.44;5051787;28;20673;-73
2022/07/18 06:40:18;;;;;;;3.67;1.30;;;;;;;23.83;44.60;100979.97;5016440;28;20200;-72
2022/07/18 06:42:45;;;;;;;1.00;1.00;;;;;;;23.65;43.67;100970.69;5051698;28;20195;-73
2022/07/18 06:45:12;;;;;;;3.60;1.27;;;;;;;23.60;44.23;100981.38;5051278;28;20763;-73
2022/07/18 06:47:41;;;;;;;4.47;1.90;;;;;;;23.50;43.84;100968.41;5051074;28;20204;-73
2022/07/18 06:50:09;;;;;;;0.70;0.70;;;;;;;23.76;43.20;100983.66;5051212;28;20195;-73
2022/07/18 06:52:35;;;;;;;1.05;1.00;;;;;;;23.67;42.91;100988.28;5051026;28;20200;-73
2022/07/18 06:55:02;;;;;;;1.50;1.20;;;;;;;23.81;43.59;100969.38;5050974;28;20257;-73
2022/07/18 06:57:29;;;;;;;5.18;2.10;;;;;;;23.82;43.17;100967.63;5050912;28;20206;-75
2022/07/18 06:59:56;;;;;;;0.82;0.82;;;;;;;23.65;43.42;100968.03;5050820;28;20203;-73
2022/07/18 07:02:23;;;;;;;3.83;1.38;;;;;;;23.82;44.00;100971.13;5051154;28;20207;-73
2022/07/18 07:04:51;;;;;;;1.25;1.10;;;;;;;24.07;43.46;100956.34;5050757;28;20726;-73
2022/07/18 07:07:18;;;;;;;0.90;0.90;;;;;;;24.18;43.20;100983.47;5050584;28;20196;-74
2022/07/18 07:09:45;;;;;;;2.85;0.90;;;;;;;24.07;42.71;100969.59;5050986;28;20226;-74
2022/07/18 07:12:12;;;;;;;1.33;1.13;;;;;;;23.92;43.59;100980.59;5050558;28;20202;-73
2022/07/18 07:14:39;;;;;;;1.60;0.93;;;;;;;23.84;42.76;100953.41;5050889;28;20210;-73
2022/07/18 07:17:06;;;;;;;1.20;1.20;;;;;;;24.03;42.61;100980.31;5050644;28;20207;-73
2022/07/18 07:19:33;;;;;;;5.68;1.27;;;;;;;23.92;42.49;100908.19;5050631;28;20222;-74
2022/07/18 07:22:01;;;;;;;8.77;1.15;;;;;;;24.16;42.54;100947.31;5050889;28;20634;-75
2022/07/18 07:24:28;;;;;;;2.45;0.95;;;;;;;24.21;42.34;100968.41;5050366;28;20234;-74
2022/07/18 07:26:55;;;;;;;1.90;1.35;;;;;;;24.46;42.44;100965.03;5050628;28;20199;-74
2022/07/18 07:29:21;;;;;;;11.15;1.30;;;;;;;24.58;42.07;100955.84;5050448;28;20383;-73
2022/07/18 07:31:48;;;;;;;1.60;1.50;;;;;;;24.83;42.62;100975.47;5050604;28;20196;-74
2022/07/18 07:34:15;;;;;;;1.00;0.90;;;;;;;24.26;41.81;100905.53;5050506;28;20684;-74
2022/07/18 07:36:42;;;;;;;2.33;1.10;;;;;;;24.53;41.71;100966.59;5031825;28;20253;-74
2022/07/18 07:39:10;;;;;;;1.48;1.00;;;;;;;24.83;41.80;100966.66;5050746;28;20199;-74
2022/07/18 07:41:37;;;;;;;2.20;1.00;;;;;;;24.48;41.58;100962.31;5050482;28;20198;-74
2022/07/18 07:44:04;;;;;;;1.70;1.10;;;;;;;24.82;42.74;100963.13;5050265;28;20227;-74
2022/07/18 07:46:31;;;;;;;1.08;1.08;;;;;;;24.85;41.71;100952.44;5050397;28;20205;-74
2022/07/18 07:48:58;;;;;;;2.05;1.27;;;;;;;24.97;42.28;100960.03;5050460;28;20218;-73
2022/07/18 07:51:27;;;;;;;1.67;0.98;;;;;;;24.76;41.21;100951.81;5015128;28;20230;-74
2022/07/18 07:53:54;;;;;;;3.35;1.00;;;;;;;25.04;41.83;100937.69;5050434;28;20223;-73
2022/07/18 07:56:22;;;;;;;1.70;1.60;;;;;;;25.24;40.94;100952.13;5050446;28;20618;-73
2022/07/18 07:58:49;;;;;;;2.53;1.13;;;;;;;25.22;41.16;100948.69;5050573;28;20207;-74
2022/07/18 08:01:17;;;;;;;1.00;1.00;;;;;;;25.51;41.65;100960.13;5050265;28;20214;-73
2022/07/18 08:03:44;;;;;;;1.17;1.10;;;;;;;25.35;40.79;100955.31;5050332;28;20300;-74
2022/07/18 08:06:11;;;;;;;1.67;0.93;;;;;;;25.23;41.08;100953.03;5050152;28;20238;-74
2022/07/18 08:08:38;;;;;;;3.55;1.10;;;;;;;25.37;40.83;100956.13;5050189;28;20199;-74
2022/07/18 08:11:05;;;;;;;0.95;0.95;;;;;;;25.53;40.40;100957.44;5015075;28;20191;-72
2022/07/18 08:13:33;;;;;;;1.08;1.00;;;;;;;25.49;39.08;100971.69;5049765;28;20199;-74
2022/07/18 08:16:00;;;;;;;5.50;1.48;;;;;;;25.51;39.75;100953.94;5014870;28;20219;-73
2022/07/18 08:18:27;;;;;;;1.20;1.15;;;;;;;25.59;39.98;100951.91;5050173;28;20199;-73
2022/07/18 08:20:54;;;;;;;2.38;1.08;;;;;;;25.26;39.79;100937.00;5050037;28;20204;-73
2022/07/18 08:23:21;;;;;;;1.00;1.00;;;;;;;25.48;40.07;100943.38;5050039;28;20199;-71
2022/07/18 08:25:48;;;;;;;1.33;1.23;;;;;;;25.50;39.94;100952.19;5049978;28;20219;-74
2022/07/18 08:28:15;;;;;;;6.18;1.27;;;;;;;25.40;39.55;100953.41;5049964;28;20200;-74
2022/07/18 08:30:43;;;;;;;0.82;0.82;;;;;;;25.55;39.18;100944.94;5050425;28;20195;-74
2022/07/18 08:33:10;;;;;;;1.15;1.08;;;;;;;25.50;39.61;100933.59;5049677;28;20196;-73
2022/07/18 08:35:37;;;;;;;1.90;1.10;;;;;;;25.60;39.54;100948.34;5049916;28;20211;-74
2022/07/18 08:38:05;;;;;;;1.23;1.00;;;;;;;25.82;40.04;100951.16;5052817;28;20206;-74
2022/07/18 08:40:32;;;;;;;1.00;1.00;;;;;;;25.86;39.31;100956.31;5053675;28;20637;-74
2022/07/18 08:42:59;;;;;;;1.65;1.00;;;;;;;25.47;39.33;100958.44;5053397;28;20192;-74
2022/07/18 08:45:26;;;;;;;3.92;1.10;;;;;;;25.68;39.32;100961.38;5053261;28;20242;-74
2022/07/18 08:47:54;;;;;;;1.02;0.93;;;;;;;25.53;39.33;100944.16;5053332;28;20195;-73
2022/07/18 08:50:22;;;;;;;2.35;0.90;;;;;;;25.64;39.40;100968.56;5053368;28;20199;-74
2022/07/18 08:52:50;;;;;;;2.67;1.10;;;;;;;25.81;39.54;100963.56;5053377;28;20196;-73
2022/07/18 08:55:17;;;;;;;0.80;0.80;;;;;;;25.86;38.82;100961.63;5053472;28;20239;-74
2022/07/18 08:57:44;;;;;;;0.80;0.80;;;;;;;25.99;38.19;100957.63;5052910;28;20226;-74
2022/07/18 09:00:12;;;;;;;1.20;1.20;;;;;;;26.03;38.05;100956.59;5040134;28;20235;-75
2022/07/18 09:02:39;;;;;;;1.45;1.02;;;;;;;26.23;39.31;100958.59;5036599;28;20676;-75
2022/07/18 09:05:19;;;;;;;1.67;1.00;;;;;;;26.19;38.24;100942.78;5044899;28;20227;-75
2022/07/18 09:07:46;;;;;;;1.40;1.10;;;;;;;26.37;38.56;100963.41;5042514;28;20268;-75
2022/07/18 09:10:13;;;;;;;0.80;0.80;;;;;;;25.98;38.81;100958.53;5033468;28;20200;-76
2022/07/18 09:12:55;;;;;;;2.20;1.10;;;;;;;26.11;38.92;100929.75;5052232;28;20207;-75
2022/07/18 09:15:22;;;;;;;1.10;1.10;;;;;;;26.35;38.42;100944.88;5033986;28;20208;-73
2022/07/18 09:17:50;;;;;;;1.30;1.20;;;;;;;26.07;38.40;100933.44;5003495;28;20211;-75
2022/07/18 09:20:18;;;;;;;1.35;1.02;;;;;;;26.30;38.88;100945.94;5050735;28;20211;-74
2022/07/18 09:22:47;;;;;;;2.70;1.20;;;;;;;26.40;38.43;100932.25;5012524;28;20204;-74
2022/07/18 09:25:15;;;;;;;1.33;1.10;;;;;;;26.64;38.68;100941.13;5049489;28;20212;-74
2022/07/18 09:27:44;;;;;;;1.15;1.00;;;;;;;26.21;38.69;100914.38;5051152;28;20283;-74
2022/07/18 09:30:24;;;;;;;1.00;1.00;;;;;;;26.55;38.43;100941.47;5051318;28;20219;-74
2022/07/18 09:32:53;;;;;;;1.33;1.20;;;;;;;26.50;38.79;100949.63;5042603;28;20211;-74
2022/07/18 09:35:24;;;;;;;2.75;1.20;;;;;;;26.50;37.88;100933.69;5045460;28;20200;-74
2022/07/18 09:38:00;;;;;;;1.58;1.30;;;;;;;26.74;38.35;100928.34;5052433;28;20203;-76
2022/07/18 09:40:30;;;;;;;6.13;1.30;;;;;;;26.46;38.11;100885.94;5039010;28;20305;-77
2022/07/18 09:42:59;;;;;;;1.13;1.13;;;;;;;26.82;38.21;100940.47;5039726;28;20187;-73
2022/07/18 09:45:29;;;;;;;2.30;1.30;;;;;;;26.96;38.39;100937.28;5052143;28;20242;-74
2022/07/18 09:47:57;;;;;;;2.80;1.75;;;;;;;26.91;37.64;100926.81;5050818;28;20207;-75
2022/07/18 09:50:31;;;;;;;2.15;1.20;;;;;;;27.13;38.42;100933.94;5052333;28;20305;-75
2022/07/18 09:53:07;;;;;;;1.10;1.10;;;;;;;27.07;37.06;100933.28;5051306;28;20211;-74
2022/07/18 09:55:35;;;;;;;1.50;1.40;;;;;;;27.15;37.78;100943.59;5052293;28;20242;-74
2022/07/18 09:58:05;;;;;;;1.73;1.30;;;;;;;27.32;38.09;100940.28;5051692;28;20671;-75
2022/07/18 10:00:33;;;;;;;6.55;1.40;;;;;;;27.14;37.74;100933.91;5057091;28;20210;-73
2022/07/18 10:03:02;;;;;;;4.95;1.33;;;;;;;27.15;37.62;100940.94;5060722;28;20638;-74
2022/07/18 10:05:32;;;;;;;1.00;1.00;;;;;;;27.31;36.62;100949.19;5070719;28;20231;-74
2022/07/18 10:08:00;;;;;;;1.10;1.10;;;;;;;27.23;36.53;100935.31;5059578;28;20191;-74
2022/07/18 10:10:28;;;;;;;2.80;1.33;;;;;;;27.30;36.30;100942.13;5051936;28;20873;-75
2022/07/18 10:12:57;;;;;;;4.38;1.80;;;;;;;27.38;37.83;100913.38;5051938;28;20194;-74
2022/07/18 10:15:26;;;;;;;2.53;1.42;;;;;;;27.41;36.46;100934.56;5052353;28;20204;-74
2022/07/18 10:17:53;;;;;;;2.85;1.42;;;;;;;27.06;37.49;100904.03;5051769;28;20214;-76
2022/07/18 10:20:33;;;;;;;3.92;1.50;;;;;;;27.41;37.23;100929.25;5056650;28;20676;-75
2022/07/18 10:23:09;;;;;;;1.20;1.20;;;;;;;27.40;36.82;100914.19;5051498;28;20643;-75
2022/07/18 10:25:36;;;;;;;6.80;1.20;;;;;;;27.29;37.28;100916.44;5051876;28;20314;-75
2022/07/18 10:28:07;;;;;;;4.30;1.33;;;;;;;27.26;36.67;100932.53;5051547;28;20209;-75
2022/07/18 10:30:36;;;;;;;4.28;1.30;;;;;;;27.01;36.54;100922.84;5051755;28;20210;-75
2022/07/18 10:33:24;;;;;;;1.50;1.40;;;;;;;27.08;37.28;100915.47;5051404;28;20654;-72
2022/07/18 10:36:04;;;;;;;1.35;1.35;;;;;;;27.46;36.87;100908.66;5032910;28;20211;-75
2022/07/18 10:38:31;;;;;;;4.75;1.52;;;;;;;27.65;37.53;100917.59;5051456;28;20648;-76
2022/07/18 10:41:12;;;;;;;1.98;1.48;;;;;;;27.71;36.45;100920.03;5051237;28;20656;-75
2022/07/18 10:43:43;;;;;;;2.35;1.30;;;;;;;27.50;36.43;100913.78;5051504;28;20641;-76
2022/07/18 10:46:13;;;;;;;1.65;1.38;;;;;;;27.66;36.75;100910.47;5051298;28;20254;-76
2022/07/18 10:48:51;;;;;;;2.25;1.20;;;;;;;27.88;36.43;100904.16;5050978;28;20196;-75
2022/07/18 10:51:19;;;;;;;3.47;1.58;;;;;;;27.72;36.77;100908.41;5051006;28;20238;-75
2022/07/18 10:54:04;;;;;;;3.30;1.30;;;;;;;27.91;36.83;100908.50;5051050;28;20242;-75
2022/07/18 10:57:07;;;;;;;2.35;1.60;;;;;;;27.88;36.56;100901.50;5051205;28;20235;-75
2022/07/18 10:59:35;;;;;;;1.35;1.27;;;;;;;27.97;36.40;100900.22;5050730;28;20635;-75
2022/07/18 11:02:06;;;;;;;2.45;1.38;;;;;;;27.99;37.48;100896.56;5050842;28;20199;-75
2022/07/18 11:04:41;;;;;;;1.65;1.55;;;;;;;27.48;37.10;100878.34;5050889;28;20203;-75
2022/07/18 11:07:13;;;;;;;2.05;1.55;;;;;;;27.70;36.26;100896.97;5050867;28;20210;-74
2022/07/18 11:09:43;;;;;;;1.67;1.58;;;;;;;27.69;36.90;100881.88;5050998;28;20202;-75
2022/07/18 11:12:22;;;;;;;5.28;1.83;;;;;;;27.88;37.05;100880.19;5050781;28;20206;-75
2022/07/18 11:15:11;;;;;;;1.98;1.35;;;;;;;27.98;36.59;100896.63;5050601;28;20211;-75
2022/07/18 11:18:02;;;;;;;2.08;1.60;;;;;;;27.72;37.13;100880.91;5050882;28;20238;-75
2022/07/18 11:20:41;;;;;;;1.65;1.58;;;;;;;28.13;37.07;100879.13;5050822;28;20199;-75
2022/07/18 11:23:19;;;;;;;1.70;1.60;;;;;;;27.84;36.04;100848.38;5050646;28;20286;-76
2022/07/18 11:25:46;;;;;;;1.70;1.60;;;;;;;28.11;37.01;100875.69;5050756;28;20593;-75
2022/07/18 11:28:14;;;;;;;2.50;1.85;;;;;;;28.02;37.31;100869.78;5050842;28;20203;-76
2022/07/18 11:30:41;;;;;;;2.65;1.30;;;;;;;27.96;37.02;100874.50;5050622;28;20195;-75
2022/07/18 11:33:23;;;;;;;1.75;1.67;;;;;;;28.19;37.06;100881.50;5038898;28;20743;-76